sensor_id;sensor_type;location;lat;lon;timestamp;P1;durP1;ratioP1;P2;durP2;ratioP2
19107;SDS011;9686;48.832;9.126;2023-04-16T00:02:09;19.80;;;14.40;;
19107;SDS011;9686;48.832;9.126;2023-04-16T00:04:35;18.67;;;14.93;;
19107;SDS011;9686;48.832;9.126;2023-04-16T00:07:00;18.70;;;14.07;;
19107;SDS011;9686;48.832;9.126;2023-04-16T00:09:25;19.83;;;14.77;;
19107;SDS011;9686;48.832;9.126;2023-04-16T00:11:51;19.57;;;15.80;;
19107;SDS011;9686;48.832;9.126;2023-04-16T00:14:16;20.77;;;15.03;;
19107;SDS011;9686;48.832;9.126;2023-04-16T00:16:41;21.13;;;14.90;;
19107;SDS011;9686;48.832;9.126;2023-04-16T00:19:07;24.43;;;16.00;;
19107;SDS011;9686;48.832;9.126;2023-04-16T00:21:32;20.07;;;15.53;;
19107;SDS011;9686;48.832;9.126;2023-04-16T00:23:57;20.33;;;14.43;;
19107;SDS011;9686;48.832;9.126;2023-04-16T00:26:23;17.23;;;13.90;;
19107;SDS011;9686;48.832;9.126;2023-04-16T00:28:48;21.63;;;15.70;;
19107;SDS011;9686;48.832;9.126;2023-04-16T00:31:13;19.63;;;14.67;;
19107;SDS011;9686;48.832;9.126;2023-04-16T00:33:39;22.00;;;15.37;;
19107;SDS011;9686;48.832;9.126;2023-04-16T00:36:04;18.20;;;14.10;;
19107;SDS011;9686;48.832;9.126;2023-04-16T00:38:30;20.97;;;15.37;;
19107;SDS011;9686;48.832;9.126;2023-04-16T00:40:56;19.93;;;14.57;;
19107;SDS011;9686;48.832;9.126;2023-04-16T00:43:23;18.07;;;14.30;;
19107;SDS011;9686;48.832;9.126;2023-04-16T00:45:50;20.37;;;14.83;;
19107;SDS011;9686;48.832;9.126;2023-04-16T00:48:17;22.40;;;14.90;;
19107;SDS011;9686;48.832;9.126;2023-04-16T00:50:42;19.33;;;15.30;;
19107;SDS011;9686;48.832;9.126;2023-04-16T00:53:08;18.00;;;14.00;;
19107;SDS011;9686;48.832;9.126;2023-04-16T00:55:33;17.63;;;14.07;;
19107;SDS011;9686;48.832;9.126;2023-04-16T00:57:59;17.20;;;13.63;;
19107;SDS011;9686;48.832;9.126;2023-04-16T01:00:24;19.03;;;14.33;;
19107;SDS011;9686;48.832;9.126;2023-04-16T01:02:51;21.73;;;14.03;;
19107;SDS011;9686;48.832;9.126;2023-04-16T01:05:17;22.37;;;14.23;;
19107;SDS011;9686;48.832;9.126;2023-04-16T01:07:43;18.20;;;12.93;;
19107;SDS011;9686;48.832;9.126;2023-04-16T01:10:08;19.67;;;14.33;;
19107;SDS011;9686;48.832;9.126;2023-04-16T01:12:33;17.00;;;13.03;;
19107;SDS011;9686;48.832;9.126;2023-04-16T01:14:59;19.13;;;13.40;;
19107;SDS011;9686;48.832;9.126;2023-04-16T01:17:24;16.93;;;13.03;;
19107;SDS011;9686;48.832;9.126;2023-04-16T01:19:49;19.17;;;13.57;;
19107;SDS011;9686;48.832;9.126;2023-04-16T01:22:15;16.77;;;12.63;;
19107;SDS011;9686;48.832;9.126;2023-04-16T01:24:41;19.20;;;13.93;;
19107;SDS011;9686;48.832;9.126;2023-04-16T01:27:06;16.43;;;12.93;;
19107;SDS011;9686;48.832;9.126;2023-04-16T01:29:31;17.77;;;13.70;;
19107;SDS011;9686;48.832;9.126;2023-04-16T01:31:57;16.67;;;12.37;;
19107;SDS011;9686;48.832;9.126;2023-04-16T01:34:22;17.53;;;12.23;;
19107;SDS011;9686;48.832;9.126;2023-04-16T01:36:47;19.60;;;12.87;;
19107;SDS011;9686;48.832;9.126;2023-04-16T01:39:12;14.03;;;11.73;;
19107;SDS011;9686;48.832;9.126;2023-04-16T01:41:40;18.60;;;12.83;;
19107;SDS011;9686;48.832;9.126;2023-04-16T01:44:05;14.23;;;11.23;;
19107;SDS011;9686;48.832;9.126;2023-04-16T01:46:31;15.73;;;11.97;;
19107;SDS011;9686;48.832;9.126;2023-04-16T01:48:59;16.43;;;11.37;;
19107;SDS011;9686;48.832;9.126;2023-04-16T01:51:25;15.27;;;11.53;;
19107;SDS011;9686;48.832;9.126;2023-04-16T01:53:52;15.53;;;11.00;;
19107;SDS011;9686;48.832;9.126;2023-04-16T01:56:17;15.60;;;11.80;;
19107;SDS011;9686;48.832;9.126;2023-04-16T01:58:43;13.43;;;11.10;;
19107;SDS011;9686;48.832;9.126;2023-04-16T02:01:10;15.70;;;11.83;;
19107;SDS011;9686;48.832;9.126;2023-04-16T02:03:35;17.00;;;12.03;;
19107;SDS011;9686;48.832;9.126;2023-04-16T02:06:00;16.17;;;12.27;;
19107;SDS011;9686;48.832;9.126;2023-04-16T02:08:26;18.57;;;13.10;;
19107;SDS011;9686;48.832;9.126;2023-04-16T02:10:51;15.67;;;12.43;;
19107;SDS011;9686;48.832;9.126;2023-04-16T02:13:16;16.40;;;12.20;;
19107;SDS011;9686;48.832;9.126;2023-04-16T02:15:48;16.40;;;12.10;;
19107;SDS011;9686;48.832;9.126;2023-04-16T02:18:14;16.60;;;12.33;;
19107;SDS011;9686;48.832;9.126;2023-04-16T02:20:40;16.30;;;12.27;;
19107;SDS011;9686;48.832;9.126;2023-04-16T02:23:06;15.40;;;11.37;;
19107;SDS011;9686;48.832;9.126;2023-04-16T02:25:32;17.40;;;12.87;;
19107;SDS011;9686;48.832;9.126;2023-04-16T02:28:03;19.43;;;12.87;;
19107;SDS011;9686;48.832;9.126;2023-04-16T02:30:28;18.57;;;13.13;;
19107;SDS011;9686;48.832;9.126;2023-04-16T02:32:53;18.70;;;12.00;;
19107;SDS011;9686;48.832;9.126;2023-04-16T02:35:19;17.77;;;13.17;;
19107;SDS011;9686;48.832;9.126;2023-04-16T02:37:44;18.03;;;13.77;;
19107;SDS011;9686;48.832;9.126;2023-04-16T02:40:10;20.63;;;12.63;;
19107;SDS011;9686;48.832;9.126;2023-04-16T02:42:35;22.47;;;14.43;;
19107;SDS011;9686;48.832;9.126;2023-04-16T02:45:01;19.20;;;14.17;;
19107;SDS011;9686;48.832;9.126;2023-04-16T02:47:26;19.53;;;13.63;;
19107;SDS011;9686;48.832;9.126;2023-04-16T02:49:51;19.60;;;13.30;;
19107;SDS011;9686;48.832;9.126;2023-04-16T02:52:16;19.30;;;13.10;;
19107;SDS011;9686;48.832;9.126;2023-04-16T02:54:42;19.77;;;13.80;;
19107;SDS011;9686;48.832;9.126;2023-04-16T02:57:07;19.23;;;13.20;;
19107;SDS011;9686;48.832;9.126;2023-04-16T02:59:32;23.00;;;13.53;;
19107;SDS011;9686;48.832;9.126;2023-04-16T03:01:58;22.40;;;14.20;;
19107;SDS011;9686;48.832;9.126;2023-04-16T03:04:23;19.60;;;13.23;;
19107;SDS011;9686;48.832;9.126;2023-04-16T03:06:48;20.77;;;12.93;;
19107;SDS011;9686;48.832;9.126;2023-04-16T03:09:13;18.97;;;13.73;;
19107;SDS011;9686;48.832;9.126;2023-04-16T03:11:39;19.57;;;13.57;;
19107;SDS011;9686;48.832;9.126;2023-04-16T03:14:04;18.60;;;13.50;;
19107;SDS011;9686;48.832;9.126;2023-04-16T03:16:29;21.67;;;14.53;;
19107;SDS011;9686;48.832;9.126;2023-04-16T03:18:55;19.80;;;13.90;;
19107;SDS011;9686;48.832;9.126;2023-04-16T03:21:20;21.47;;;14.57;;
19107;SDS011;9686;48.832;9.126;2023-04-16T03:23:46;23.73;;;15.33;;
19107;SDS011;9686;48.832;9.126;2023-04-16T03:26:11;23.30;;;14.60;;
19107;SDS011;9686;48.832;9.126;2023-04-16T03:28:36;25.77;;;16.67;;
19107;SDS011;9686;48.832;9.126;2023-04-16T03:31:02;28.57;;;16.07;;
19107;SDS011;9686;48.832;9.126;2023-04-16T03:33:27;23.37;;;14.93;;
19107;SDS011;9686;48.832;9.126;2023-04-16T03:35:58;24.87;;;16.20;;
19107;SDS011;9686;48.832;9.126;2023-04-16T03:38:23;24.70;;;15.67;;
19107;SDS011;9686;48.832;9.126;2023-04-16T03:40:52;26.23;;;16.20;;
19107;SDS011;9686;48.832;9.126;2023-04-16T03:43:17;21.90;;;15.10;;
19107;SDS011;9686;48.832;9.126;2023-04-16T03:45:43;23.60;;;14.97;;
19107;SDS011;9686;48.832;9.126;2023-04-16T03:48:09;24.87;;;15.13;;
19107;SDS011;9686;48.832;9.126;2023-04-16T03:50:34;24.37;;;15.07;;
19107;SDS011;9686;48.832;9.126;2023-04-16T03:53:00;25.00;;;15.43;;
19107;SDS011;9686;48.832;9.126;2023-04-16T03:55:25;23.47;;;15.43;;
19107;SDS011;9686;48.832;9.126;2023-04-16T03:57:50;22.90;;;14.93;;
19107;SDS011;9686;48.832;9.126;2023-04-16T04:00:16;26.37;;;16.67;;
19107;SDS011;9686;48.832;9.126;2023-04-16T04:02:41;22.77;;;15.47;;
19107;SDS011;9686;48.832;9.126;2023-04-16T04:05:07;25.47;;;15.73;;
19107;SDS011;9686;48.832;9.126;2023-04-16T04:07:32;28.67;;;15.40;;
19107;SDS011;9686;48.832;9.126;2023-04-16T04:09:57;26.47;;;15.73;;
19107;SDS011;9686;48.832;9.126;2023-04-16T04:12:23;23.57;;;14.40;;
19107;SDS011;9686;48.832;9.126;2023-04-16T04:14:48;27.27;;;15.60;;
19107;SDS011;9686;48.832;9.126;2023-04-16T04:17:14;23.43;;;14.60;;
19107;SDS011;9686;48.832;9.126;2023-04-16T04:19:39;25.73;;;13.93;;
19107;SDS011;9686;48.832;9.126;2023-04-16T04:22:04;23.67;;;14.40;;
19107;SDS011;9686;48.832;9.126;2023-04-16T04:24:30;22.80;;;14.23;;
19107;SDS011;9686;48.832;9.126;2023-04-16T04:26:55;22.50;;;13.03;;
19107;SDS011;9686;48.832;9.126;2023-04-16T04:29:21;23.90;;;14.03;;
19107;SDS011;9686;48.832;9.126;2023-04-16T04:31:46;22.50;;;13.43;;
19107;SDS011;9686;48.832;9.126;2023-04-16T04:34:12;24.87;;;13.43;;
19107;SDS011;9686;48.832;9.126;2023-04-16T04:36:37;21.80;;;13.97;;
19107;SDS011;9686;48.832;9.126;2023-04-16T04:39:02;26.17;;;14.83;;
19107;SDS011;9686;48.832;9.126;2023-04-16T04:41:27;22.53;;;13.93;;
19107;SDS011;9686;48.832;9.126;2023-04-16T04:43:53;23.20;;;13.93;;
19107;SDS011;9686;48.832;9.126;2023-04-16T04:46:18;24.83;;;14.13;;
19107;SDS011;9686;48.832;9.126;2023-04-16T04:48:43;23.03;;;14.33;;
19107;SDS011;9686;48.832;9.126;2023-04-16T04:51:09;24.47;;;14.83;;
19107;SDS011;9686;48.832;9.126;2023-04-16T04:53:34;21.53;;;13.60;;
19107;SDS011;9686;48.832;9.126;2023-04-16T04:55:59;26.40;;;14.70;;
19107;SDS011;9686;48.832;9.126;2023-04-16T04:58:25;24.73;;;15.00;;
19107;SDS011;9686;48.832;9.126;2023-04-16T05:00:50;26.83;;;14.33;;
19107;SDS011;9686;48.832;9.126;2023-04-16T05:03:18;23.67;;;14.00;;
19107;SDS011;9686;48.832;9.126;2023-04-16T05:05:45;24.63;;;13.93;;
19107;SDS011;9686;48.832;9.126;2023-04-16T05:08:10;23.53;;;13.90;;
19107;SDS011;9686;48.832;9.126;2023-04-16T05:10:35;22.80;;;13.07;;
19107;SDS011;9686;48.832;9.126;2023-04-16T05:13:01;26.73;;;13.67;;
19107;SDS011;9686;48.832;9.126;2023-04-16T05:15:26;25.57;;;14.77;;
19107;SDS011;9686;48.832;9.126;2023-04-16T05:17:51;25.17;;;15.13;;
19107;SDS011;9686;48.832;9.126;2023-04-16T05:20:17;33.07;;;17.87;;
19107;SDS011;9686;48.832;9.126;2023-04-16T05:22:42;29.13;;;18.03;;
19107;SDS011;9686;48.832;9.126;2023-04-16T05:25:08;32.47;;;18.67;;
19107;SDS011;9686;48.832;9.126;2023-04-16T05:27:33;36.93;;;19.83;;
19107;SDS011;9686;48.832;9.126;2023-04-16T05:29:59;36.17;;;19.70;;
19107;SDS011;9686;48.832;9.126;2023-04-16T05:32:24;31.10;;;19.03;;
19107;SDS011;9686;48.832;9.126;2023-04-16T05:34:50;33.77;;;19.90;;
19107;SDS011;9686;48.832;9.126;2023-04-16T05:37:16;35.53;;;19.77;;
19107;SDS011;9686;48.832;9.126;2023-04-16T05:39:41;39.97;;;20.77;;
19107;SDS011;9686;48.832;9.126;2023-04-16T05:42:06;38.13;;;21.23;;
19107;SDS011;9686;48.832;9.126;2023-04-16T05:44:32;38.63;;;21.13;;
19107;SDS011;9686;48.832;9.126;2023-04-16T05:46:57;40.03;;;21.67;;
19107;SDS011;9686;48.832;9.126;2023-04-16T05:49:22;45.10;;;22.40;;
19107;SDS011;9686;48.832;9.126;2023-04-16T05:51:48;40.10;;;21.77;;
19107;SDS011;9686;48.832;9.126;2023-04-16T05:54:13;38.47;;;22.00;;
19107;SDS011;9686;48.832;9.126;2023-04-16T05:56:38;47.60;;;22.50;;
19107;SDS011;9686;48.832;9.126;2023-04-16T05:59:04;41.47;;;23.23;;
19107;SDS011;9686;48.832;9.126;2023-04-16T06:01:29;42.53;;;22.27;;
19107;SDS011;9686;48.832;9.126;2023-04-16T06:03:56;38.23;;;22.00;;
19107;SDS011;9686;48.832;9.126;2023-04-16T06:06:21;42.33;;;21.37;;
19107;SDS011;9686;48.832;9.126;2023-04-16T06:08:46;42.90;;;22.80;;
19107;SDS011;9686;48.832;9.126;2023-04-16T06:11:12;39.87;;;21.60;;
19107;SDS011;9686;48.832;9.126;2023-04-16T06:13:37;41.57;;;21.80;;
19107;SDS011;9686;48.832;9.126;2023-04-16T06:16:03;41.80;;;22.43;;
19107;SDS011;9686;48.832;9.126;2023-04-16T06:18:28;35.70;;;20.57;;
19107;SDS011;9686;48.832;9.126;2023-04-16T06:20:54;46.07;;;23.87;;
19107;SDS011;9686;48.832;9.126;2023-04-16T06:23:19;43.43;;;23.03;;
19107;SDS011;9686;48.832;9.126;2023-04-16T06:25:44;41.03;;;22.50;;
19107;SDS011;9686;48.832;9.126;2023-04-16T06:28:09;41.77;;;22.10;;
19107;SDS011;9686;48.832;9.126;2023-04-16T06:30:35;45.57;;;24.40;;
19107;SDS011;9686;48.832;9.126;2023-04-16T06:33:00;42.47;;;22.43;;
19107;SDS011;9686;48.832;9.126;2023-04-16T06:35:25;42.93;;;22.73;;
19107;SDS011;9686;48.832;9.126;2023-04-16T06:37:51;42.00;;;22.30;;
19107;SDS011;9686;48.832;9.126;2023-04-16T06:40:16;42.90;;;24.07;;
19107;SDS011;9686;48.832;9.126;2023-04-16T06:42:41;44.77;;;22.83;;
19107;SDS011;9686;48.832;9.126;2023-04-16T06:45:07;42.93;;;22.90;;
19107;SDS011;9686;48.832;9.126;2023-04-16T06:47:33;44.63;;;22.63;;
19107;SDS011;9686;48.832;9.126;2023-04-16T06:49:58;41.13;;;23.13;;
19107;SDS011;9686;48.832;9.126;2023-04-16T06:52:23;42.43;;;23.80;;
19107;SDS011;9686;48.832;9.126;2023-04-16T06:54:49;40.93;;;22.90;;
19107;SDS011;9686;48.832;9.126;2023-04-16T06:57:14;40.43;;;22.63;;
19107;SDS011;9686;48.832;9.126;2023-04-16T06:59:40;37.10;;;22.33;;
19107;SDS011;9686;48.832;9.126;2023-04-16T07:02:06;35.30;;;20.40;;
19107;SDS011;9686;48.832;9.126;2023-04-16T07:04:33;41.33;;;23.23;;
19107;SDS011;9686;48.832;9.126;2023-04-16T07:06:59;38.87;;;22.67;;
19107;SDS011;9686;48.832;9.126;2023-04-16T07:09:24;37.33;;;22.40;;
19107;SDS011;9686;48.832;9.126;2023-04-16T07:11:51;37.40;;;21.97;;
19107;SDS011;9686;48.832;9.126;2023-04-16T07:14:17;39.77;;;21.57;;
19107;SDS011;9686;48.832;9.126;2023-04-16T07:16:42;40.27;;;22.50;;
19107;SDS011;9686;48.832;9.126;2023-04-16T07:19:07;39.93;;;21.27;;
19107;SDS011;9686;48.832;9.126;2023-04-16T07:21:33;38.90;;;20.57;;
19107;SDS011;9686;48.832;9.126;2023-04-16T07:23:58;34.13;;;20.33;;
19107;SDS011;9686;48.832;9.126;2023-04-16T07:26:23;39.63;;;21.73;;
19107;SDS011;9686;48.832;9.126;2023-04-16T07:28:49;36.93;;;21.20;;
19107;SDS011;9686;48.832;9.126;2023-04-16T07:31:14;33.17;;;19.67;;
19107;SDS011;9686;48.832;9.126;2023-04-16T07:33:39;39.67;;;21.10;;
19107;SDS011;9686;48.832;9.126;2023-04-16T07:36:05;36.90;;;21.33;;
19107;SDS011;9686;48.832;9.126;2023-04-16T07:38:30;37.83;;;19.90;;
19107;SDS011;9686;48.832;9.126;2023-04-16T07:40:55;34.43;;;20.50;;
19107;SDS011;9686;48.832;9.126;2023-04-16T07:43:21;39.93;;;20.03;;
19107;SDS011;9686;48.832;9.126;2023-04-16T07:45:46;34.10;;;20.20;;
19107;SDS011;9686;48.832;9.126;2023-04-16T07:48:11;35.60;;;20.27;;
19107;SDS011;9686;48.832;9.126;2023-04-16T07:50:36;36.63;;;20.93;;
19107;SDS011;9686;48.832;9.126;2023-04-16T07:53:02;38.37;;;20.83;;
19107;SDS011;9686;48.832;9.126;2023-04-16T07:55:27;37.30;;;20.67;;
19107;SDS011;9686;48.832;9.126;2023-04-16T07:57:53;35.57;;;20.53;;
19107;SDS011;9686;48.832;9.126;2023-04-16T08:00:19;34.97;;;19.10;;
19107;SDS011;9686;48.832;9.126;2023-04-16T08:02:44;33.63;;;19.87;;
19107;SDS011;9686;48.832;9.126;2023-04-16T08:05:09;32.57;;;20.43;;
19107;SDS011;9686;48.832;9.126;2023-04-16T08:07:35;32.47;;;19.80;;
19107;SDS011;9686;48.832;9.126;2023-04-16T08:10:00;28.80;;;18.37;;
19107;SDS011;9686;48.832;9.126;2023-04-16T08:12:26;26.13;;;16.67;;
19107;SDS011;9686;48.832;9.126;2023-04-16T08:14:51;36.03;;;20.07;;
19107;SDS011;9686;48.832;9.126;2023-04-16T08:17:16;32.53;;;18.87;;
19107;SDS011;9686;48.832;9.126;2023-04-16T08:19:42;29.00;;;17.73;;
19107;SDS011;9686;48.832;9.126;2023-04-16T08:22:11;29.87;;;18.57;;
19107;SDS011;9686;48.832;9.126;2023-04-16T08:24:37;30.90;;;20.30;;
19107;SDS011;9686;48.832;9.126;2023-04-16T08:27:02;27.23;;;18.17;;
19107;SDS011;9686;48.832;9.126;2023-04-16T08:29:29;28.73;;;17.67;;
19107;SDS011;9686;48.832;9.126;2023-04-16T08:31:54;27.67;;;19.30;;
19107;SDS011;9686;48.832;9.126;2023-04-16T08:34:20;31.57;;;20.57;;
19107;SDS011;9686;48.832;9.126;2023-04-16T08:36:45;29.37;;;19.63;;
19107;SDS011;9686;48.832;9.126;2023-04-16T08:39:11;31.33;;;18.63;;
19107;SDS011;9686;48.832;9.126;2023-04-16T08:41:37;29.27;;;18.83;;
19107;SDS011;9686;48.832;9.126;2023-04-16T08:44:08;28.03;;;18.57;;
19107;SDS011;9686;48.832;9.126;2023-04-16T08:46:37;29.33;;;19.03;;
19107;SDS011;9686;48.832;9.126;2023-04-16T08:49:05;26.10;;;16.07;;
19107;SDS011;9686;48.832;9.126;2023-04-16T08:51:34;28.17;;;16.83;;
19107;SDS011;9686;48.832;9.126;2023-04-16T08:54:09;24.90;;;18.13;;
19107;SDS011;9686;48.832;9.126;2023-04-16T08:56:38;26.50;;;17.37;;
19107;SDS011;9686;48.832;9.126;2023-04-16T08:59:05;27.77;;;16.90;;
19107;SDS011;9686;48.832;9.126;2023-04-16T09:01:31;27.60;;;16.93;;
19107;SDS011;9686;48.832;9.126;2023-04-16T09:03:57;25.77;;;17.47;;
19107;SDS011;9686;48.832;9.126;2023-04-16T09:06:25;26.97;;;17.90;;
19107;SDS011;9686;48.832;9.126;2023-04-16T09:08:52;25.30;;;17.40;;
19107;SDS011;9686;48.832;9.126;2023-04-16T09:11:18;23.40;;;15.80;;
19107;SDS011;9686;48.832;9.126;2023-04-16T09:13:44;24.60;;;16.73;;
19107;SDS011;9686;48.832;9.126;2023-04-16T09:16:10;25.17;;;17.27;;
19107;SDS011;9686;48.832;9.126;2023-04-16T09:18:37;26.43;;;17.00;;
19107;SDS011;9686;48.832;9.126;2023-04-16T09:21:02;26.87;;;16.90;;
19107;SDS011;9686;48.832;9.126;2023-04-16T09:23:28;28.90;;;17.13;;
19107;SDS011;9686;48.832;9.126;2023-04-16T09:25:55;27.57;;;16.33;;
19107;SDS011;9686;48.832;9.126;2023-04-16T09:28:41;25.77;;;16.50;;
19107;SDS011;9686;48.832;9.126;2023-04-16T09:31:08;28.90;;;17.10;;
19107;SDS011;9686;48.832;9.126;2023-04-16T09:33:35;22.50;;;15.70;;
19107;SDS011;9686;48.832;9.126;2023-04-16T09:36:00;27.07;;;17.20;;
19107;SDS011;9686;48.832;9.126;2023-04-16T09:38:26;27.63;;;17.33;;
19107;SDS011;9686;48.832;9.126;2023-04-16T09:41:09;25.97;;;16.70;;
19107;SDS011;9686;48.832;9.126;2023-04-16T09:43:35;27.97;;;17.50;;
19107;SDS011;9686;48.832;9.126;2023-04-16T09:46:00;27.27;;;17.13;;
19107;SDS011;9686;48.832;9.126;2023-04-16T09:48:28;28.50;;;17.77;;
19107;SDS011;9686;48.832;9.126;2023-04-16T09:50:55;27.07;;;17.20;;
19107;SDS011;9686;48.832;9.126;2023-04-16T09:53:24;26.10;;;17.03;;
19107;SDS011;9686;48.832;9.126;2023-04-16T09:55:51;29.70;;;17.70;;
19107;SDS011;9686;48.832;9.126;2023-04-16T09:58:17;28.13;;;16.83;;
19107;SDS011;9686;48.832;9.126;2023-04-16T10:00:43;28.63;;;17.90;;
19107;SDS011;9686;48.832;9.126;2023-04-16T10:03:10;25.37;;;15.97;;
19107;SDS011;9686;48.832;9.126;2023-04-16T10:05:35;28.47;;;18.70;;
19107;SDS011;9686;48.832;9.126;2023-04-16T10:08:01;24.20;;;17.43;;
19107;SDS011;9686;48.832;9.126;2023-04-16T10:10:27;29.40;;;18.37;;
19107;SDS011;9686;48.832;9.126;2023-04-16T10:12:54;26.87;;;17.20;;
19107;SDS011;9686;48.832;9.126;2023-04-16T10:15:19;28.03;;;17.00;;
19107;SDS011;9686;48.832;9.126;2023-04-16T10:17:45;23.33;;;16.30;;
19107;SDS011;9686;48.832;9.126;2023-04-16T10:20:11;26.07;;;17.33;;
19107;SDS011;9686;48.832;9.126;2023-04-16T10:22:38;24.90;;;16.77;;
19107;SDS011;9686;48.832;9.126;2023-04-16T10:25:03;26.43;;;17.23;;
19107;SDS011;9686;48.832;9.126;2023-04-16T10:27:30;24.70;;;16.73;;
19107;SDS011;9686;48.832;9.126;2023-04-16T10:29:55;25.17;;;15.47;;
19107;SDS011;9686;48.832;9.126;2023-04-16T10:32:21;25.07;;;16.00;;
19107;SDS011;9686;48.832;9.126;2023-04-16T10:34:52;26.53;;;16.67;;
19107;SDS011;9686;48.832;9.126;2023-04-16T10:37:18;26.97;;;16.43;;
19107;SDS011;9686;48.832;9.126;2023-04-16T10:39:52;24.33;;;14.83;;
19107;SDS011;9686;48.832;9.126;2023-04-16T10:42:17;22.77;;;14.97;;
19107;SDS011;9686;48.832;9.126;2023-04-16T10:44:43;26.60;;;15.63;;
19107;SDS011;9686;48.832;9.126;2023-04-16T10:47:10;24.73;;;15.63;;
19107;SDS011;9686;48.832;9.126;2023-04-16T10:49:36;25.80;;;16.07;;
19107;SDS011;9686;48.832;9.126;2023-04-16T10:54:37;23.27;;;14.80;;
19107;SDS011;9686;48.832;9.126;2023-04-16T10:57:03;21.83;;;14.50;;
19107;SDS011;9686;48.832;9.126;2023-04-16T10:59:31;22.90;;;13.50;;
19107;SDS011;9686;48.832;9.126;2023-04-16T11:01:59;22.80;;;13.40;;
19107;SDS011;9686;48.832;9.126;2023-04-16T11:04:33;18.13;;;12.97;;
19107;SDS011;9686;48.832;9.126;2023-04-16T11:12:14;20.83;;;13.17;;
19107;SDS011;9686;48.832;9.126;2023-04-16T11:14:43;18.80;;;12.37;;
19107;SDS011;9686;48.832;9.126;2023-04-16T11:17:11;20.37;;;12.00;;
19107;SDS011;9686;48.832;9.126;2023-04-16T11:19:37;16.83;;;12.23;;
19107;SDS011;9686;48.832;9.126;2023-04-16T11:22:03;16.23;;;10.80;;
19107;SDS011;9686;48.832;9.126;2023-04-16T11:24:29;15.60;;;11.40;;
19107;SDS011;9686;48.832;9.126;2023-04-16T11:26:55;16.10;;;11.53;;
19107;SDS011;9686;48.832;9.126;2023-04-16T11:29:20;17.43;;;11.20;;
19107;SDS011;9686;48.832;9.126;2023-04-16T11:31:52;18.47;;;11.10;;
19107;SDS011;9686;48.832;9.126;2023-04-16T11:34:18;16.17;;;10.13;;
19107;SDS011;9686;48.832;9.126;2023-04-16T11:36:45;18.53;;;10.47;;
19107;SDS011;9686;48.832;9.126;2023-04-16T11:39:12;14.80;;;10.27;;
19107;SDS011;9686;48.832;9.126;2023-04-16T11:41:47;13.17;;;9.47;;
19107;SDS011;9686;48.832;9.126;2023-04-16T11:44:21;15.47;;;9.87;;
19107;SDS011;9686;48.832;9.126;2023-04-16T11:46:48;12.87;;;8.87;;
19107;SDS011;9686;48.832;9.126;2023-04-16T11:49:15;13.40;;;9.23;;
19107;SDS011;9686;48.832;9.126;2023-04-16T11:51:45;12.80;;;8.87;;
19107;SDS011;9686;48.832;9.126;2023-04-16T11:54:23;12.03;;;8.03;;
19107;SDS011;9686;48.832;9.126;2023-04-16T11:56:49;14.00;;;8.67;;
19107;SDS011;9686;48.832;9.126;2023-04-16T11:59:20;11.50;;;7.97;;
19107;SDS011;9686;48.832;9.126;2023-04-16T12:01:48;11.30;;;8.07;;
19107;SDS011;9686;48.832;9.126;2023-04-16T12:04:15;11.33;;;7.03;;
19107;SDS011;9686;48.832;9.126;2023-04-16T12:09:30;11.33;;;7.87;;
19107;SDS011;9686;48.832;9.126;2023-04-16T12:11:56;11.30;;;7.97;;
19107;SDS011;9686;48.832;9.126;2023-04-16T12:14:21;11.23;;;7.63;;
19107;SDS011;9686;48.832;9.126;2023-04-16T12:16:47;9.73;;;6.83;;
19107;SDS011;9686;48.832;9.126;2023-04-16T12:19:12;10.30;;;7.00;;
19107;SDS011;9686;48.832;9.126;2023-04-16T12:21:41;10.53;;;7.03;;
19107;SDS011;9686;48.832;9.126;2023-04-16T12:24:11;8.70;;;6.87;;
19107;SDS011;9686;48.832;9.126;2023-04-16T12:29:15;9.37;;;7.30;;
19107;SDS011;9686;48.832;9.126;2023-04-16T12:31:40;10.30;;;7.57;;
19107;SDS011;9686;48.832;9.126;2023-04-16T12:34:06;11.10;;;7.73;;
19107;SDS011;9686;48.832;9.126;2023-04-16T12:36:31;10.83;;;7.97;;
19107;SDS011;9686;48.832;9.126;2023-04-16T12:38:57;11.90;;;7.40;;
19107;SDS011;9686;48.832;9.126;2023-04-16T12:41:22;11.00;;;7.27;;
19107;SDS011;9686;48.832;9.126;2023-04-16T12:43:47;11.83;;;7.50;;
19107;SDS011;9686;48.832;9.126;2023-04-16T12:46:13;15.60;;;7.97;;
19107;SDS011;9686;48.832;9.126;2023-04-16T12:48:38;12.73;;;8.00;;
19107;SDS011;9686;48.832;9.126;2023-04-16T12:51:03;10.97;;;8.40;;
19107;SDS011;9686;48.832;9.126;2023-04-16T12:53:29;10.87;;;7.83;;
19107;SDS011;9686;48.832;9.126;2023-04-16T12:55:54;12.53;;;8.13;;
19107;SDS011;9686;48.832;9.126;2023-04-16T12:58:20;12.07;;;8.27;;
19107;SDS011;9686;48.832;9.126;2023-04-16T13:00:45;13.47;;;9.27;;
19107;SDS011;9686;48.832;9.126;2023-04-16T13:03:10;12.30;;;8.13;;
19107;SDS011;9686;48.832;9.126;2023-04-16T13:05:36;14.80;;;9.20;;
19107;SDS011;9686;48.832;9.126;2023-04-16T13:08:01;13.03;;;9.57;;
19107;SDS011;9686;48.832;9.126;2023-04-16T13:10:26;13.90;;;9.50;;
19107;SDS011;9686;48.832;9.126;2023-04-16T13:12:52;15.90;;;9.40;;
19107;SDS011;9686;48.832;9.126;2023-04-16T13:15:17;14.73;;;9.90;;
19107;SDS011;9686;48.832;9.126;2023-04-16T13:17:42;17.90;;;10.13;;
19107;SDS011;9686;48.832;9.126;2023-04-16T13:20:08;14.60;;;10.67;;
19107;SDS011;9686;48.832;9.126;2023-04-16T13:22:33;14.57;;;10.03;;
19107;SDS011;9686;48.832;9.126;2023-04-16T13:24:59;14.30;;;10.47;;
19107;SDS011;9686;48.832;9.126;2023-04-16T13:27:24;15.77;;;10.80;;
19107;SDS011;9686;48.832;9.126;2023-04-16T13:29:50;13.37;;;9.20;;
19107;SDS011;9686;48.832;9.126;2023-04-16T13:32:15;16.67;;;11.03;;
19107;SDS011;9686;48.832;9.126;2023-04-16T13:34:42;17.77;;;11.20;;
19107;SDS011;9686;48.832;9.126;2023-04-16T13:37:08;14.90;;;9.87;;
19107;SDS011;9686;48.832;9.126;2023-04-16T13:39:33;14.27;;;10.20;;
19107;SDS011;9686;48.832;9.126;2023-04-16T13:41:58;16.47;;;9.97;;
19107;SDS011;9686;48.832;9.126;2023-04-16T13:44:24;15.37;;;10.70;;
19107;SDS011;9686;48.832;9.126;2023-04-16T13:46:49;13.97;;;11.23;;
19107;SDS011;9686;48.832;9.126;2023-04-16T13:49:15;16.70;;;10.63;;
19107;SDS011;9686;48.832;9.126;2023-04-16T13:51:43;13.93;;;10.00;;
19107;SDS011;9686;48.832;9.126;2023-04-16T13:54:08;15.37;;;10.27;;
19107;SDS011;9686;48.832;9.126;2023-04-16T13:56:34;13.13;;;10.00;;
19107;SDS011;9686;48.832;9.126;2023-04-16T13:58:59;16.53;;;11.67;;
19107;SDS011;9686;48.832;9.126;2023-04-16T14:01:24;16.03;;;11.00;;
19107;SDS011;9686;48.832;9.126;2023-04-16T14:03:50;17.30;;;13.37;;
19107;SDS011;9686;48.832;9.126;2023-04-16T14:06:15;17.40;;;11.67;;
19107;SDS011;9686;48.832;9.126;2023-04-16T14:08:42;14.70;;;11.17;;
19107;SDS011;9686;48.832;9.126;2023-04-16T14:11:07;15.17;;;11.00;;
19107;SDS011;9686;48.832;9.126;2023-04-16T14:13:33;16.27;;;11.23;;
19107;SDS011;9686;48.832;9.126;2023-04-16T14:15:58;19.33;;;12.97;;
19107;SDS011;9686;48.832;9.126;2023-04-16T14:18:24;18.17;;;12.17;;
19107;SDS011;9686;48.832;9.126;2023-04-16T14:20:49;16.27;;;11.50;;
19107;SDS011;9686;48.832;9.126;2023-04-16T14:23:14;18.87;;;11.97;;
19107;SDS011;9686;48.832;9.126;2023-04-16T14:25:40;16.63;;;12.57;;
19107;SDS011;9686;48.832;9.126;2023-04-16T14:28:05;17.30;;;13.20;;
19107;SDS011;9686;48.832;9.126;2023-04-16T14:30:30;19.13;;;13.10;;
19107;SDS011;9686;48.832;9.126;2023-04-16T14:32:56;20.10;;;12.63;;
19107;SDS011;9686;48.832;9.126;2023-04-16T14:35:21;17.17;;;13.10;;
19107;SDS011;9686;48.832;9.126;2023-04-16T14:37:47;18.63;;;12.77;;
19107;SDS011;9686;48.832;9.126;2023-04-16T14:40:13;20.43;;;14.13;;
19107;SDS011;9686;48.832;9.126;2023-04-16T14:42:38;19.83;;;13.77;;